sensor_id;sensor_type;location;lat;lon;timestamp;temperature;humidity
11242;DHT22;5678;52.370;9.006;2022-12-31T00:01:50;12.10;99.90
11242;DHT22;5678;52.370;9.006;2022-12-31T00:04:18;13.00;99.90
11242;DHT22;5678;52.370;9.006;2022-12-31T00:06:47;12.40;99.90
11242;DHT22;5678;52.370;9.006;2022-12-31T00:09:15;13.00;99.90
11242;DHT22;5678;52.370;9.006;2022-12-31T00:11:43;12.50;99.90
11242;DHT22;5678;52.370;9.006;2022-12-31T00:14:11;12.20;99.90
11242;DHT22;5678;52.370;9.006;2022-12-31T00:16:40;12.30;99.90
11242;DHT22;5678;52.370;9.006;2022-12-31T00:19:10;12.80;99.90
11242;DHT22;5678;52.370;9.006;2022-12-31T00:21:38;12.30;99.90
11242;DHT22;5678;52.370;9.006;2022-12-31T00:24:10;12.30;99.90
11242;DHT22;5678;52.370;9.006;2022-12-31T00:26:38;13.40;99.90
11242;DHT22;5678;52.370;9.006;2022-12-31T00:29:06;12.30;99.90
11242;DHT22;5678;52.370;9.006;2022-12-31T00:31:36;13.40;99.90
11242;DHT22;5678;52.370;9.006;2022-12-31T00:34:05;12.20;99.90
11242;DHT22;5678;52.370;9.006;2022-12-31T00:36:35;12.30;99.90
11242;DHT22;5678;52.370;9.006;2022-12-31T00:39:05;12.30;99.90
11242;DHT22;5678;52.370;9.006;2022-12-31T00:41:35;13.40;99.90
11242;DHT22;5678;52.370;9.006;2022-12-31T00:44:03;12.80;99.90
11242;DHT22;5678;52.370;9.006;2022-12-31T00:46:31;12.30;99.90
11242;DHT22;5678;52.370;9.006;2022-12-31T00:48:59;12.40;99.90
11242;DHT22;5678;52.370;9.006;2022-12-31T00:51:29;13.20;99.90
11242;DHT22;5678;52.370;9.006;2022-12-31T00:53:57;12.20;99.90
11242;DHT22;5678;52.370;9.006;2022-12-31T00:56:27;12.00;99.90
11242;DHT22;5678;52.370;9.006;2022-12-31T00:58:57;12.00;99.90
11242;DHT22;5678;52.370;9.006;2022-12-31T01:01:26;11.90;99.90
11242;DHT22;5678;52.370;9.006;2022-12-31T01:03:57;11.80;99.90
11242;DHT22;5678;52.370;9.006;2022-12-31T01:06:26;11.90;99.90
11242;DHT22;5678;52.370;9.006;2022-12-31T01:08:54;12.70;99.90
11242;DHT22;5678;52.370;9.006;2022-12-31T01:11:23;11.90;99.90
11242;DHT22;5678;52.370;9.006;2022-12-31T01:13:57;11.80;99.90
11242;DHT22;5678;52.370;9.006;2022-12-31T01:16:27;11.80;99.90
11242;DHT22;5678;52.370;9.006;2022-12-31T01:18:57;11.80;99.90
11242;DHT22;5678;52.370;9.006;2022-12-31T01:21:26;11.80;99.90
11242;DHT22;5678;52.370;9.006;2022-12-31T01:23:53;11.90;99.90
11242;DHT22;5678;52.370;9.006;2022-12-31T01:26:21;11.70;99.90
11242;DHT22;5678;52.370;9.006;2022-12-31T01:28:49;11.80;99.90
11242;DHT22;5678;52.370;9.006;2022-12-31T01:31:20;11.80;99.90
11242;DHT22;5678;52.370;9.006;2022-12-31T01:33:48;11.90;99.90
11242;DHT22;5678;52.370;9.006;2022-12-31T01:36:17;11.90;99.90
11242;DHT22;5678;52.370;9.006;2022-12-31T01:38:51;11.80;99.90
11242;DHT22;5678;52.370;9.006;2022-12-31T01:41:21;12.00;99.90
11242;DHT22;5678;52.370;9.006;2022-12-31T01:43:51;11.80;99.90
11242;DHT22;5678;52.370;9.006;2022-12-31T01:46:26;11.80;99.90
11242;DHT22;5678;52.370;9.006;2022-12-31T01:48:58;11.80;99.90
11242;DHT22;5678;52.370;9.006;2022-12-31T01:51:29;11.70;99.90
11242;DHT22;5678;52.370;9.006;2022-12-31T01:53:58;11.80;99.90
11242;DHT22;5678;52.370;9.006;2022-12-31T01:56:27;11.80;99.90
11242;DHT22;5678;52.370;9.006;2022-12-31T01:58:55;12.50;99.90
11242;DHT22;5678;52.370;9.006;2022-12-31T02:01:29;12.30;99.90
11242;DHT22;5678;52.370;9.006;2022-12-31T02:03:59;12.20;99.90
11242;DHT22;5678;52.370;9.006;2022-12-31T02:06:34;11.80;99.90
11242;DHT22;5678;52.370;9.006;2022-12-31T02:09:04;11.80;99.90
11242;DHT22;5678;52.370;9.006;2022-12-31T02:11:33;11.90;99.90
11242;DHT22;5678;52.370;9.006;2022-12-31T02:14:06;11.90;99.90
11242;DHT22;5678;52.370;9.006;2022-12-31T02:16:42;11.80;99.90
11242;DHT22;5678;52.370;9.006;2022-12-31T02:19:27;11.80;99.90
11242;DHT22;5678;52.370;9.006;2022-12-31T02:22:03;11.80;99.90
11242;DHT22;5678;52.370;9.006;2022-12-31T02:24:58;11.80;99.90
11242;DHT22;5678;52.370;9.006;2022-12-31T02:27:42;11.80;99.90
11242;DHT22;5678;52.370;9.006;2022-12-31T02:30:14;11.80;99.90
11242;DHT22;5678;52.370;9.006;2022-12-31T02:32:54;11.70;99.90
11242;DHT22;5678;52.370;9.006;2022-12-31T02:35:28;11.90;99.90
11242;DHT22;5678;52.370;9.006;2022-12-31T02:38:01;11.70;99.90
11242;DHT22;5678;52.370;9.006;2022-12-31T02:40:33;11.90;99.90
11242;DHT22;5678;52.370;9.006;2022-12-31T02:43:01;11.60;99.90
11242;DHT22;5678;52.370;9.006;2022-12-31T02:45:34;11.80;99.90
11242;DHT22;5678;52.370;9.006;2022-12-31T02:48:19;11.70;99.90
11242;DHT22;5678;52.370;9.006;2022-12-31T02:50:54;11.80;99.90
11242;DHT22;5678;52.370;9.006;2022-12-31T02:56:25;11.60;99.90
11242;DHT22;5678;52.370;9.006;2022-12-31T02:59:00;12.10;99.90
11242;DHT22;5678;52.370;9.006;2022-12-31T03:01:52;11.70;99.90
11242;DHT22;5678;52.370;9.006;2022-12-31T03:04:41;11.60;99.90
11242;DHT22;5678;52.370;9.006;2022-12-31T03:07:11;11.60;99.90
11242;DHT22;5678;52.370;9.006;2022-12-31T03:09:40;11.50;99.90
11242;DHT22;5678;52.370;9.006;2022-12-31T03:12:10;11.50;99.90
11242;DHT22;5678;52.370;9.006;2022-12-31T03:14:57;11.50;99.90
11242;DHT22;5678;52.370;9.006;2022-12-31T03:17:26;11.50;99.90
11242;DHT22;5678;52.370;9.006;2022-12-31T03:19:54;11.60;99.90
11242;DHT22;5678;52.370;9.006;2022-12-31T03:22:42;11.40;99.90
11242;DHT22;5678;52.370;9.006;2022-12-31T03:25:12;11.50;99.90
11242;DHT22;5678;52.370;9.006;2022-12-31T03:27:58;11.70;99.90
11242;DHT22;5678;52.370;9.006;2022-12-31T03:30:26;11.50;99.90
11242;DHT22;5678;52.370;9.006;2022-12-31T03:32:56;12.20;99.90
11242;DHT22;5678;52.370;9.006;2022-12-31T03:35:25;11.50;99.90
11242;DHT22;5678;52.370;9.006;2022-12-31T03:37:54;11.70;99.90
11242;DHT22;5678;52.370;9.006;2022-12-31T03:40:23;11.50;99.90
11242;DHT22;5678;52.370;9.006;2022-12-31T03:42:52;11.40;99.90
11242;DHT22;5678;52.370;9.006;2022-12-31T03:45:20;11.50;99.90
11242;DHT22;5678;52.370;9.006;2022-12-31T03:47:48;11.40;99.90
11242;DHT22;5678;52.370;9.006;2022-12-31T03:50:18;11.50;99.90
11242;DHT22;5678;52.370;9.006;2022-12-31T03:52:46;11.60;99.90
11242;DHT22;5678;52.370;9.006;2022-12-31T03:55:14;11.40;99.90
11242;DHT22;5678;52.370;9.006;2022-12-31T03:57:42;11.50;99.90
11242;DHT22;5678;52.370;9.006;2022-12-31T04:00:12;11.40;99.90
11242;DHT22;5678;52.370;9.006;2022-12-31T04:02:40;11.10;99.90
11242;DHT22;5678;52.370;9.006;2022-12-31T04:05:09;11.60;99.90
11242;DHT22;5678;52.370;9.006;2022-12-31T04:07:38;12.00;99.90
11242;DHT22;5678;52.370;9.006;2022-12-31T04:10:09;11.50;99.90
11242;DHT22;5678;52.370;9.006;2022-12-31T04:12:38;11.60;99.90
11242;DHT22;5678;52.370;9.006;2022-12-31T04:15:07;11.40;99.90
11242;DHT22;5678;52.370;9.006;2022-12-31T04:17:36;11.60;99.90
11242;DHT22;5678;52.370;9.006;2022-12-31T04:20:05;11.80;99.90
11242;DHT22;5678;52.370;9.006;2022-12-31T04:22:33;11.60;99.90
11242;DHT22;5678;52.370;9.006;2022-12-31T04:25:03;12.10;99.90
11242;DHT22;5678;52.370;9.006;2022-12-31T04:27:31;11.70;99.90
11242;DHT22;5678;52.370;9.006;2022-12-31T04:29:59;11.60;99.90
11242;DHT22;5678;52.370;9.006;2022-12-31T04:32:27;11.50;99.90
11242;DHT22;5678;52.370;9.006;2022-12-31T04:34:55;11.60;99.90
11242;DHT22;5678;52.370;9.006;2022-12-31T04:37:23;11.50;99.90
11242;DHT22;5678;52.370;9.006;2022-12-31T04:39:51;11.50;99.90
11242;DHT22;5678;52.370;9.006;2022-12-31T04:42:20;11.50;99.90
11242;DHT22;5678;52.370;9.006;2022-12-31T04:44:48;11.40;99.90
11242;DHT22;5678;52.370;9.006;2022-12-31T04:47:16;11.50;99.90
11242;DHT22;5678;52.370;9.006;2022-12-31T04:49:49;12.00;99.90
11242;DHT22;5678;52.370;9.006;2022-12-31T04:52:17;11.40;99.90
11242;DHT22;5678;52.370;9.006;2022-12-31T04:54:45;11.50;99.90
11242;DHT22;5678;52.370;9.006;2022-12-31T04:57:13;11.40;99.90
11242;DHT22;5678;52.370;9.006;2022-12-31T04:59:42;11.30;99.90
11242;DHT22;5678;52.370;9.006;2022-12-31T05:02:10;11.30;99.90
11242;DHT22;5678;52.370;9.006;2022-12-31T05:04:38;11.20;99.90
11242;DHT22;5678;52.370;9.006;2022-12-31T05:07:06;11.50;99.90
11242;DHT22;5678;52.370;9.006;2022-12-31T05:09:34;11.20;99.90
11242;DHT22;5678;52.370;9.006;2022-12-31T05:12:02;11.30;99.90
11242;DHT22;5678;52.370;9.006;2022-12-31T05:14:30;11.40;99.90
11242;DHT22;5678;52.370;9.006;2022-12-31T05:16:59;11.90;99.90
11242;DHT22;5678;52.370;9.006;2022-12-31T05:19:27;11.30;99.90
11242;DHT22;5678;52.370;9.006;2022-12-31T05:21:55;11.20;99.90
11242;DHT22;5678;52.370;9.006;2022-12-31T05:24:40;11.20;99.90
11242;DHT22;5678;52.370;9.006;2022-12-31T05:27:08;11.20;99.90
11242;DHT22;5678;52.370;9.006;2022-12-31T05:29:36;11.10;99.90
11242;DHT22;5678;52.370;9.006;2022-12-31T05:32:05;11.30;99.90
11242;DHT22;5678;52.370;9.006;2022-12-31T05:34:33;11.20;99.90
11242;DHT22;5678;52.370;9.006;2022-12-31T05:37:01;11.10;99.90
11242;DHT22;5678;52.370;9.006;2022-12-31T05:39:29;11.20;99.90
11242;DHT22;5678;52.370;9.006;2022-12-31T05:41:57;11.10;99.90
11242;DHT22;5678;52.370;9.006;2022-12-31T05:44:25;12.30;99.90
11242;DHT22;5678;52.370;9.006;2022-12-31T05:46:53;11.70;99.90
11242;DHT22;5678;52.370;9.006;2022-12-31T05:49:22;11.10;99.90
11242;DHT22;5678;52.370;9.006;2022-12-31T05:51:50;11.30;99.90
11242;DHT22;5678;52.370;9.006;2022-12-31T05:54:18;11.10;99.90
11242;DHT22;5678;52.370;9.006;2022-12-31T05:56:46;11.30;99.90
11242;DHT22;5678;52.370;9.006;2022-12-31T05:59:14;11.00;99.90
11242;DHT22;5678;52.370;9.006;2022-12-31T06:01:42;11.00;99.90
11242;DHT22;5678;52.370;9.006;2022-12-31T06:04:10;11.30;99.90
11242;DHT22;5678;52.370;9.006;2022-12-31T06:06:39;11.50;99.90
11242;DHT22;5678;52.370;9.006;2022-12-31T06:09:07;11.10;99.90
11242;DHT22;5678;52.370;9.006;2022-12-31T06:11:35;11.40;99.90
11242;DHT22;5678;52.370;9.006;2022-12-31T06:14:03;10.90;99.90
11242;DHT22;5678;52.370;9.006;2022-12-31T06:16:31;13.10;99.90
11242;DHT22;5678;52.370;9.006;2022-12-31T06:18:59;11.00;99.90
11242;DHT22;5678;52.370;9.006;2022-12-31T06:21:28;11.00;99.90
11242;DHT22;5678;52.370;9.006;2022-12-31T06:23:57;11.10;99.90
11242;DHT22;5678;52.370;9.006;2022-12-31T06:26:26;11.70;99.90
11242;DHT22;5678;52.370;9.006;2022-12-31T06:28:54;11.10;99.90
11242;DHT22;5678;52.370;9.006;2022-12-31T06:31:22;11.20;99.90
11242;DHT22;5678;52.370;9.006;2022-12-31T06:33:50;11.00;99.90
11242;DHT22;5678;52.370;9.006;2022-12-31T06:36:18;11.70;99.90
11242;DHT22;5678;52.370;9.006;2022-12-31T06:38:47;12.70;99.90
11242;DHT22;5678;52.370;9.006;2022-12-31T06:41:17;11.10;99.90
11242;DHT22;5678;52.370;9.006;2022-12-31T06:43:45;11.40;99.90
11242;DHT22;5678;52.370;9.006;2022-12-31T06:46:15;11.10;99.90
11242;DHT22;5678;52.370;9.006;2022-12-31T06:48:43;11.50;99.90
11242;DHT22;5678;52.370;9.006;2022-12-31T06:51:13;11.20;99.90
11242;DHT22;5678;52.370;9.006;2022-12-31T06:53:43;11.20;99.90
11242;DHT22;5678;52.370;9.006;2022-12-31T06:56:15;11.40;99.90
11242;DHT22;5678;52.370;9.006;2022-12-31T06:58:45;11.30;99.90
11242;DHT22;5678;52.370;9.006;2022-12-31T07:01:28;11.30;99.90
11242;DHT22;5678;52.370;9.006;2022-12-31T07:04:02;11.30;99.90
11242;DHT22;5678;52.370;9.006;2022-12-31T07:06:35;11.10;99.90
11242;DHT22;5678;52.370;9.006;2022-12-31T07:09:13;11.10;99.90
11242;DHT22;5678;52.370;9.006;2022-12-31T07:11:49;11.20;99.90
11242;DHT22;5678;52.370;9.006;2022-12-31T07:14:29;11.40;99.90
11242;DHT22;5678;52.370;9.006;2022-12-31T07:17:09;11.20;99.90
11242;DHT22;5678;52.370;9.006;2022-12-31T07:19:51;11.30;99.90
11242;DHT22;5678;52.370;9.006;2022-12-31T07:22:24;11.30;99.90
11242;DHT22;5678;52.370;9.006;2022-12-31T07:24:52;11.30;99.90
11242;DHT22;5678;52.370;9.006;2022-12-31T07:27:33;11.30;99.90
11242;DHT22;5678;52.370;9.006;2022-12-31T07:30:08;11.10;99.90
11242;DHT22;5678;52.370;9.006;2022-12-31T07:32:52;11.30;99.90
11242;DHT22;5678;52.370;9.006;2022-12-31T07:35:29;12.10;99.90
11242;DHT22;5678;52.370;9.006;2022-12-31T07:38:06;11.00;99.90
11242;DHT22;5678;52.370;9.006;2022-12-31T07:40:41;11.10;99.90
11242;DHT22;5678;52.370;9.006;2022-12-31T07:43:16;11.20;99.90
11242;DHT22;5678;52.370;9.006;2022-12-31T07:45:57;11.20;99.90
11242;DHT22;5678;52.370;9.006;2022-12-31T07:48:28;11.70;99.90
11242;DHT22;5678;52.370;9.006;2022-12-31T07:50:56;11.30;99.90
11242;DHT22;5678;52.370;9.006;2022-12-31T07:53:25;11.30;99.90
11242;DHT22;5678;52.370;9.006;2022-12-31T07:55:55;11.30;99.90
11242;DHT22;5678;52.370;9.006;2022-12-31T07:58:29;11.30;99.90
11242;DHT22;5678;52.370;9.006;2022-12-31T08:01:02;11.00;99.90
11242;DHT22;5678;52.370;9.006;2022-12-31T08:03:44;11.20;99.90
11242;DHT22;5678;52.370;9.006;2022-12-31T08:06:21;11.20;99.90
11242;DHT22;5678;52.370;9.006;2022-12-31T08:09:00;11.00;99.90
11242;DHT22;5678;52.370;9.006;2022-12-31T08:11:33;11.10;99.90
11242;DHT22;5678;52.370;9.006;2022-12-31T08:14:08;11.00;99.90
11242;DHT22;5678;52.370;9.006;2022-12-31T08:16:38;11.10;99.90
11242;DHT22;5678;52.370;9.006;2022-12-31T08:19:15;11.20;99.90
11242;DHT22;5678;52.370;9.006;2022-12-31T08:21:57;11.10;99.90
11242;DHT22;5678;52.370;9.006;2022-12-31T08:24:34;11.20;99.90
11242;DHT22;5678;52.370;9.006;2022-12-31T08:27:09;11.50;99.90
11242;DHT22;5678;52.370;9.006;2022-12-31T08:29:47;12.30;99.90
11242;DHT22;5678;52.370;9.006;2022-12-31T08:32:24;11.20;99.90
11242;DHT22;5678;52.370;9.006;2022-12-31T08:34:59;11.60;99.90
11242;DHT22;5678;52.370;9.006;2022-12-31T08:37:35;11.30;99.90
11242;DHT22;5678;52.370;9.006;2022-12-31T08:40:15;11.40;99.90
11242;DHT22;5678;52.370;9.006;2022-12-31T08:43:00;11.60;99.90
11242;DHT22;5678;52.370;9.006;2022-12-31T08:45:35;11.80;99.90
11242;DHT22;5678;52.370;9.006;2022-12-31T08:48:12;11.80;99.90
11242;DHT22;5678;52.370;9.006;2022-12-31T08:50:44;11.50;99.90
11242;DHT22;5678;52.370;9.006;2022-12-31T08:53:12;11.70;99.90
11242;DHT22;5678;52.370;9.006;2022-12-31T08:55:41;11.70;99.90
11242;DHT22;5678;52.370;9.006;2022-12-31T08:58:24;12.50;99.90
11242;DHT22;5678;52.370;9.006;2022-12-31T09:00:57;11.70;99.90
11242;DHT22;5678;52.370;9.006;2022-12-31T09:03:35;11.90;99.90
11242;DHT22;5678;52.370;9.006;2022-12-31T09:06:12;12.50;99.90
11242;DHT22;5678;52.370;9.006;2022-12-31T09:08:50;12.10;99.90
11242;DHT22;5678;52.370;9.006;2022-12-31T09:11:25;12.20;99.90
11242;DHT22;5678;52.370;9.006;2022-12-31T09:14:12;12.30;99.90
11242;DHT22;5678;52.370;9.006;2022-12-31T09:16:49;12.30;99.90
11242;DHT22;5678;52.370;9.006;2022-12-31T09:19:22;14.20;99.90
11242;DHT22;5678;52.370;9.006;2022-12-31T09:21:50;12.60;99.90
11242;DHT22;5678;52.370;9.006;2022-12-31T09:24:19;12.50;99.90
11242;DHT22;5678;52.370;9.006;2022-12-31T09:26:54;13.00;99.90
11242;DHT22;5678;52.370;9.006;2022-12-31T09:29:34;14.80;99.90
11242;DHT22;5678;52.370;9.006;2022-12-31T09:32:09;13.30;99.90
11242;DHT22;5678;52.370;9.006;2022-12-31T09:34:47;13.10;99.90
11242;DHT22;5678;52.370;9.006;2022-12-31T09:37:20;13.70;99.90
11242;DHT22;5678;52.370;9.006;2022-12-31T09:39:52;13.40;99.90
11242;DHT22;5678;52.370;9.006;2022-12-31T09:42:49;13.80;99.90
11242;DHT22;5678;52.370;9.006;2022-12-31T09:45:58;14.30;99.90
11242;DHT22;5678;52.370;9.006;2022-12-31T09:48:49;13.90;99.90
11242;DHT22;5678;52.370;9.006;2022-12-31T09:51:27;14.00;99.90
11242;DHT22;5678;52.370;9.006;2022-12-31T09:54:27;14.10;99.90
11242;DHT22;5678;52.370;9.006;2022-12-31T09:57:21;14.60;99.90
11242;DHT22;5678;52.370;9.006;2022-12-31T09:59:57;14.80;99.90
11242;DHT22;5678;52.370;9.006;2022-12-31T10:02:59;15.00;99.90
11242;DHT22;5678;52.370;9.006;2022-12-31T10:05:41;14.80;99.90
11242;DHT22;5678;52.370;9.006;2022-12-31T10:08:25;15.10;99.90
11242;DHT22;5678;52.370;9.006;2022-12-31T10:10:58;15.00;99.90
11242;DHT22;5678;52.370;9.006;2022-12-31T10:13:46;15.30;99.90
11242;DHT22;5678;52.370;9.006;2022-12-31T10:16:42;15.20;99.90
11242;DHT22;5678;52.370;9.006;2022-12-31T10:25:49;15.30;99.90
11242;DHT22;5678;52.370;9.006;2022-12-31T10:28:38;15.90;99.90
11242;DHT22;5678;52.370;9.006;2022-12-31T10:31:14;15.70;99.90
11242;DHT22;5678;52.370;9.006;2022-12-31T10:33:44;15.80;99.90
11242;DHT22;5678;52.370;9.006;2022-12-31T10:36:19;15.70;99.90
11242;DHT22;5678;52.370;9.006;2022-12-31T10:39:02;16.00;99.90
11242;DHT22;5678;52.370;9.006;2022-12-31T10:42:23;15.60;99.90
11242;DHT22;5678;52.370;9.006;2022-12-31T10:45:29;15.60;99.90
11242;DHT22;5678;52.370;9.006;2022-12-31T10:51:22;15.60;99.90
11242;DHT22;5678;52.370;9.006;2022-12-31T10:54:36;15.70;99.90
11242;DHT22;5678;52.370;9.006;2022-12-31T10:57:36;15.50;99.90
11242;DHT22;5678;52.370;9.006;2022-12-31T11:00:14;15.20;99.90
11242;DHT22;5678;52.370;9.006;2022-12-31T11:06:33;14.60;99.90
11242;DHT22;5678;52.370;9.006;2022-12-31T11:09:25;14.50;99.90
11242;DHT22;5678;52.370;9.006;2022-12-31T11:12:04;14.40;99.90
11242;DHT22;5678;52.370;9.006;2022-12-31T11:14:59;14.40;99.90
11242;DHT22;5678;52.370;9.006;2022-12-31T11:17:42;14.10;99.90
11242;DHT22;5678;52.370;9.006;2022-12-31T11:20:36;13.90;99.90
11242;DHT22;5678;52.370;9.006;2022-12-31T11:23:15;14.20;99.90
11242;DHT22;5678;52.370;9.006;2022-12-31T11:25:56;14.90;99.90
11242;DHT22;5678;52.370;9.006;2022-12-31T11:28:38;14.70;99.90
11242;DHT22;5678;52.370;9.006;2022-12-31T11:31:19;14.90;99.90
11242;DHT22;5678;52.370;9.006;2022-12-31T11:34:00;14.50;99.90
11242;DHT22;5678;52.370;9.006;2022-12-31T11:36:38;14.00;99.90
11242;DHT22;5678;52.370;9.006;2022-12-31T11:39:24;14.30;99.90
11242;DHT22;5678;52.370;9.006;2022-12-31T11:42:02;14.30;99.90
11242;DHT22;5678;52.370;9.006;2022-12-31T11:44:38;15.10;99.90
11242;DHT22;5678;52.370;9.006;2022-12-31T11:47:19;14.80;99.90
11242;DHT22;5678;52.370;9.006;2022-12-31T11:49:59;14.80;99.90
11242;DHT22;5678;52.370;9.006;2022-12-31T11:52:47;14.20;99.90
11242;DHT22;5678;52.370;9.006;2022-12-31T11:58:12;14.00;99.90
11242;DHT22;5678;52.370;9.006;2022-12-31T12:00:45;14.10;99.90
11242;DHT22;5678;52.370;9.006;2022-12-31T12:03:18;14.10;99.90
11242;DHT22;5678;52.370;9.006;2022-12-31T12:05:46;14.40;99.90
11242;DHT22;5678;52.370;9.006;2022-12-31T12:08:14;14.70;99.90
11242;DHT22;5678;52.370;9.006;2022-12-31T12:10:45;14.80;99.90
11242;DHT22;5678;52.370;9.006;2022-12-31T12:13:21;15.50;99.90
11242;DHT22;5678;52.370;9.006;2022-12-31T12:15:53;15.00;99.90
11242;DHT22;5678;52.370;9.006;2022-12-31T12:18:29;15.00;99.90
11242;DHT22;5678;52.370;9.006;2022-12-31T12:21:02;15.10;99.90
11242;DHT22;5678;52.370;9.006;2022-12-31T12:23:32;15.70;99.90
11242;DHT22;5678;52.370;9.006;2022-12-31T12:26:00;14.80;99.90
11242;DHT22;5678;52.370;9.006;2022-12-31T12:28:29;14.30;99.90
11242;DHT22;5678;52.370;9.006;2022-12-31T12:30:59;15.50;99.90
11242;DHT22;5678;52.370;9.006;2022-12-31T12:33:39;14.60;99.90
11242;DHT22;5678;52.370;9.006;2022-12-31T12:36:09;14.90;99.90
11242;DHT22;5678;52.370;9.006;2022-12-31T12:38:37;15.10;99.90
11242;DHT22;5678;52.370;9.006;2022-12-31T12:41:09;15.10;99.90
11242;DHT22;5678;52.370;9.006;2022-12-31T12:43:37;15.20;99.90
11242;DHT22;5678;52.370;9.006;2022-12-31T12:46:17;15.40;99.90
11242;DHT22;5678;52.370;9.006;2022-12-31T12:48:52;16.10;99.90
11242;DHT22;5678;52.370;9.006;2022-12-31T12:51:40;15.90;99.90
11242;DHT22;5678;52.370;9.006;2022-12-31T12:54:20;15.90;99.90
11242;DHT22;5678;52.370;9.006;2022-12-31T12:56:57;15.40;99.90
11242;DHT22;5678;52.370;9.006;2022-12-31T13:05:53;15.60;99.90
11242;DHT22;5678;52.370;9.006;2022-12-31T13:08:33;15.80;99.90
11242;DHT22;5678;52.370;9.006;2022-12-31T13:11:17;16.30;99.90
11242;DHT22;5678;52.370;9.006;2022-12-31T13:13:56;16.30;99.90
11242;DHT22;5678;52.370;9.006;2022-12-31T13:16:33;16.30;99.90
11242;DHT22;5678;52.370;9.006;2022-12-31T13:19:10;15.90;99.90
11242;DHT22;5678;52.370;9.006;2022-12-31T13:21:48;16.20;99.90
11242;DHT22;5678;52.370;9.006;2022-12-31T13:24:39;16.20;99.90
11242;DHT22;5678;52.370;9.006;2022-12-31T13:27:14;15.80;99.90
11242;DHT22;5678;52.370;9.006;2022-12-31T13:29:46;15.90;99.90
11242;DHT22;5678;52.370;9.006;2022-12-31T13:32:18;15.80;99.90
11242;DHT22;5678;52.370;9.006;2022-12-31T13:34:53;16.40;99.90
11242;DHT22;5678;52.370;9.006;2022-12-31T13:37:29;15.20;99.90
11242;DHT22;5678;52.370;9.006;2022-12-31T13:40:03;16.50;99.90
11242;DHT22;5678;52.370;9.006;2022-12-31T13:42:39;15.90;99.90
11242;DHT22;5678;52.370;9.006;2022-12-31T13:45:12;16.30;99.90
11242;DHT22;5678;52.370;9.006;2022-12-31T13:47:43;16.70;99.90
11242;DHT22;5678;52.370;9.006;2022-12-31T13:50:18;16.50;99.90
11242;DHT22;5678;52.370;9.006;2022-12-31T13:52:54;16.20;99.90
11242;DHT22;5678;52.370;9.006;2022-12-31T13:55:27;16.10;99.90
11242;DHT22;5678;52.370;9.006;2022-12-31T13:58:02;16.60;99.90
11242;DHT22;5678;52.370;9.006;2022-12-31T14:00:35;16.30;99.90
11242;DHT22;5678;52.370;9.006;2022-12-31T14:03:09;16.10;99.90
11242;DHT22;5678;52.370;9.006;2022-12-31T14:05:41;16.50;99.90
11242;DHT22;5678;52.370;9.006;2022-12-31T14:08:14;16.00;99.90
11242;DHT22;5678;52.370;9.006;2022-12-31T14:10:54;16.20;99.90
11242;DHT22;5678;52.370;9.006;2022-12-31T14:13:41;16.30;99.90
11242;DHT22;5678;52.370;9.006;2022-12-31T14:16:18;16.00;99.90
11242;DHT22;5678;52.370;9.006;2022-12-31T14:18:55;16.00;99.90
11242;DHT22;5678;52.370;9.006;2022-12-31T14:21:28;15.90;99.90
11242;DHT22;5678;52.370;9.006;2022-12-31T14:24:05;15.80;99.90
11242;DHT22;5678;52.370;9.006;2022-12-31T14:26:38;15.80;99.90
11242;DHT22;5678;52.370;9.006;2022-12-31T14:29:22;15.70;99.90
11242;DHT22;5678;52.370;9.006;2022-12-31T14:32:11;16.40;99.90
11242;DHT22;5678;52.370;9.006;2022-12-31T14:34:48;15.60;99.90
11242;DHT22;5678;52.370;9.006;2022-12-31T14:37:26;15.80;99.90
11242;DHT22;5678;52.370;9.006;2022-12-31T14:40:05;15.50;99.90
11242;DHT22;5678;52.370;9.006;2022-12-31T14:42:48;15.40;99.90
11242;DHT22;5678;52.370;9.006;2022-12-31T14:45:27;15.50;99.90
11242;DHT22;5678;52.370;9.006;2022-12-31T14:48:03;16.10;99.90
11242;DHT22;5678;52.370;9.006;2022-12-31T14:50:33;15.40;99.90
11242;DHT22;5678;52.370;9.006;2022-12-31T14:53:14;15.40;99.90
11242;DHT22;5678;52.370;9.006;2022-12-31T14:55:56;15.40;99.90
11242;DHT22;5678;52.370;9.006;2022-12-31T14:58:29;15.40;99.90
11242;DHT22;5678;52.370;9.006;2022-12-31T15:00:59;15.40;99.90
11242;DHT22;5678;52.370;9.006;2022-12-31T15:03:35;15.40;99.90
11242;DHT22;5678;52.370;9.006;2022-12-31T15:06:27;15.40;99.90
11242;DHT22;5678;52.370;9.006;2022-12-31T15:09:07;15.30;99.90
11242;DHT22;5678;52.370;9.006;2022-12-31T15:12:03;15.30;99.90
11242;DHT22;5678;52.370;9.006;2022-12-31T15:14:55;15.50;99.90
11242;DHT22;5678;52.370;9.006;2022-12-31T15:17:35;15.30;99.90
11242;DHT22;5678;52.370;9.006;2022-12-31T15:20:25;15.40;99.90
11242;DHT22;5678;52.370;9.006;2022-12-31T15:22:56;15.30;99.90
11242;DHT22;5678;52.370;9.006;2022-12-31T15:25:28;15.70;99.90
11242;DHT22;5678;52.370;9.006;2022-12-31T15:28:23;15.30;99.90
11242;DHT22;5678;52.370;9.006;2022-12-31T15:30:57;15.50;99.90
11242;DHT22;5678;52.370;9.006;2022-12-31T15:33:31;15.50;99.90
11242;DHT22;5678;52.370;9.006;2022-12-31T15:36:13;15.40;99.90
11242;DHT22;5678;52.370;9.006;2022-12-31T15:38:42;15.20;99.90
11242;DHT22;5678;52.370;9.006;2022-12-31T15:41:35;15.40;99.90
11242;DHT22;5678;52.370;9.006;2022-12-31T15:44:12;15.50;99.90
11242;DHT22;5678;52.370;9.006;2022-12-31T15:46:43;15.40;99.90
11242;DHT22;5678;52.370;9.006;2022-12-31T15:49:15;15.00;99.90
11242;DHT22;5678;52.370;9.006;2022-12-31T15:51:48;15.00;99.90
11242;DHT22;5678;52.370;9.006;2022-12-31T15:54:23;15.00;99.90
11242;DHT22;5678;52.370;9.006;2022-12-31T15:56:52;14.90;99.90
11242;DHT22;5678;52.370;9.006;2022-12-31T15:59:22;15.00;99.90
11242;DHT22;5678;52.370;9.006;2022-12-31T16:01:53;15.00;99.90
11242;DHT22;5678;52.370;9.006;2022-12-31T16:04:25;15.20;99.90
11242;DHT22;5678;52.370;9.006;2022-12-31T16:06:53;15.10;99.90
11242;DHT22;5678;52.370;9.006;2022-12-31T16:09:27;15.30;99.90
11242;DHT22;5678;52.370;9.006;2022-12-31T16:11:56;15.00;99.90
11242;DHT22;5678;52.370;9.006;2022-12-31T16:14:30;15.00;99.90
11242;DHT22;5678;52.370;9.006;2022-12-31T16:17:01;14.90;99.90
11242;DHT22;5678;52.370;9.006;2022-12-31T16:19:31;15.00;99.90
11242;DHT22;5678;52.370;9.006;2022-12-31T16:22:13;14.90;99.90
11242;DHT22;5678;52.370;9.006;2022-12-31T16:24:42;15.20;99.90
11242;DHT22;5678;52.370;9.006;2022-12-31T16:27:30;15.00;99.90
11242;DHT22;5678;52.370;9.006;2022-12-31T16:30:05;14.80;99.90
11242;DHT22;5678;52.370;9.006;2022-12-31T16:32:36;14.80;99.90
11242;DHT22;5678;52.370;9.006;2022-12-31T16:35:19;14.90;99.90
11242;DHT22;5678;52.370;9.006;2022-12-31T16:38:09;14.80;99.90
11242;DHT22;5678;52.370;9.006;2022-12-31T16:40:38;14.80;99.90
11242;DHT22;5678;52.370;9.006;2022-12-31T16:43:21;15.70;99.90
11242;DHT22;5678;52.370;9.006;2022-12-31T16:45:54;14.90;99.90
11242;DHT22;5678;52.370;9.006;2022-12-31T16:48:24;14.80;99.90
11242;DHT22;5678;52.370;9.006;2022-12-31T16:50:53;15.50;99.90
11242;DHT22;5678;52.370;9.006;2022-12-31T16:53:25;15.30;99.90
11242;DHT22;5678;52.370;9.006;2022-12-31T16:55:55;15.10;99.90
11242;DHT22;5678;52.370;9.006;2022-12-31T16:58:26;14.70;99.90